This is the latest recevied weather packets stored in our database for station/object VA2CPJ. If no packets are shown the sender has not sent any weather packets the latest 10 day(s).
| Time | Temp. | Humidity | Pressure | Rain* | Wind** | Luminosity | Snow |
|---|---|---|---|---|---|---|---|
| 1778038518 | 12.22° C | 92% | 1014 hPa | - | - | 0 W/m² | - |
| 1778038230 | 12.22° C | 93% | 1013 hPa | - | - | 0 W/m² | - |
| 1778036761 | 12.78° C | 92% | 1013.3 hPa | - | - | 0 W/m² | - |
| 1778035546 | 13.33° C | 93% | 1013 hPa | - | - | 0 W/m² | - |
| 1778033767 | 12.78° C | 97% | 1012.3 hPa | - | - | 0 W/m² | - |
| 1778033732 | 12.78° C | 97% | 1012.6 hPa | - | - | 0 W/m² | - |
| 1778033455 | 12.78° C | 97% | 1011.6 hPa | - | - | 0 W/m² | - |
| 1778031941 | 13.33° C | 97% | 1013 hPa | - | - | 0 W/m² | - |
| 1778031624 | 13.33° C | 97% | 1011.9 hPa | - | - | 0 W/m² | - |
| 1778031361 | 13.33° C | 97% | 1012.6 hPa | - | - | 0 W/m² | - |
| 1778029830 | 13.33° C | 96% | 1011.3 hPa | - | - | 0 W/m² | - |
| 1778029042 | 13.33° C | 95% | 1012.3 hPa | - | - | 0 W/m² | - |
| 1778028076 | 13.89° C | 94% | 1010.9 hPa | - | - | 0 W/m² | - |
| 1778027721 | 13.89° C | 94% | 1011.6 hPa | - | - | 0 W/m² | - |
| 1778027423 | 13.89° C | 94% | 1010.6 hPa | - | - | 0 W/m² | - |
| 1778026531 | 13.89° C | 94% | 1011.3 hPa | - | - | 1 W/m² | - |
| 1778026085 | 13.89° C | 94% | 1010.9 hPa | - | - | 24 W/m² | - |
| 1778025918 | 13.89° C | 94% | 1011.3 hPa | - | - | 25 W/m² | - |
| 1778025641 | 13.89° C | 93% | 1010.2 hPa | - | - | 46 W/m² | - |
| 1778025353 | 13.89° C | 93% | 1011.3 hPa | - | - | 33 W/m² | - |
| 1778024431 | 14.44° C | 92% | 1009.9 hPa | - | - | 116 W/m² | - |
| 1778022322 | 14.44° C | 92% | 1010.2 hPa | - | - | 948 W/m² | - |
| 1778021727 | 14.44° C | 92% | 1010.2 hPa | - | - | 1395 W/m² | - |
| 1778019665 | 15.56° C | 84% | 1008.5 hPa | - | - | 1994 W/m² | - |
| 1778018420 | 16.11° C | 81% | 1008.2 hPa | - | - | 1661 W/m² | - |
* Rain since midnight (hover to see other rain measurements)
** Current wind speed in m/s (hover to see current wind gust speed)